sensor_id;sensor_type;location;lat;lon;timestamp;pressure;altitude;pressure_sealevel;temperature;humidity
82418;BME280;72059;53.734;10.260;2023-09-12T00:01:21;100712.52;;;18.90;82.39
82418;BME280;72059;53.734;10.260;2023-09-12T00:03:48;100709.90;;;18.85;82.54
82418;BME280;72059;53.734;10.260;2023-09-12T00:06:16;100715.59;;;18.80;82.75
82418;BME280;72059;53.734;10.260;2023-09-12T00:08:44;100730.47;;;18.77;82.92
82418;BME280;72059;53.734;10.260;2023-09-12T00:11:11;100730.89;;;18.74;83.07
82418;BME280;72059;53.734;10.260;2023-09-12T00:13:40;100730.46;;;18.72;83.15
82418;BME280;72059;53.734;10.260;2023-09-12T00:16:08;100729.57;;;18.68;83.26
82418;BME280;72059;53.734;10.260;2023-09-12T00:18:38;100732.65;;;18.66;83.37
82418;BME280;72059;53.734;10.260;2023-09-12T00:21:05;100738.31;;;18.62;83.61
82418;BME280;72059;53.734;10.260;2023-09-12T00:23:33;100754.49;;;18.60;83.86
82418;BME280;72059;53.734;10.260;2023-09-12T00:26:00;100744.00;;;18.59;83.88
82418;BME280;72059;53.734;10.260;2023-09-12T00:28:28;100744.00;;;18.56;83.95
82418;BME280;72059;53.734;10.260;2023-09-12T00:30:55;100753.62;;;18.54;84.15
82418;BME280;72059;53.734;10.260;2023-09-12T00:33:23;100758.86;;;18.50;84.29
82418;BME280;72059;53.734;10.260;2023-09-12T00:35:50;100755.34;;;18.47;84.42
82418;BME280;72059;53.734;10.260;2023-09-12T00:38:18;100753.17;;;18.43;84.66
82418;BME280;72059;53.734;10.260;2023-09-12T00:40:45;100753.61;;;18.38;84.99
82418;BME280;72059;53.734;10.260;2023-09-12T00:43:15;100755.80;;;18.34;85.38
82418;BME280;72059;53.734;10.260;2023-09-12T00:45:43;100743.55;;;18.27;85.79
82418;BME280;72059;53.734;10.260;2023-09-12T00:48:11;100740.05;;;18.28;85.89
82418;BME280;72059;53.734;10.260;2023-09-12T00:50:41;100750.52;;;18.24;86.37
82418;BME280;72059;53.734;10.260;2023-09-12T00:53:09;100746.58;;;18.23;86.89
82418;BME280;72059;53.734;10.260;2023-09-12T00:55:39;100747.03;;;18.21;86.93
82418;BME280;72059;53.734;10.260;2023-09-12T00:58:06;100740.47;;;18.18;87.12
82418;BME280;72059;53.734;10.260;2023-09-12T01:00:34;100737.42;;;18.15;87.48
82418;BME280;72059;53.734;10.260;2023-09-12T01:03:02;100729.55;;;18.14;87.78
82418;BME280;72059;53.734;10.260;2023-09-12T01:05:30;100732.59;;;18.11;87.90
82418;BME280;72059;53.734;10.260;2023-09-12T01:07:57;100731.27;;;18.10;87.97
82418;BME280;72059;53.734;10.260;2023-09-12T01:10:26;100736.93;;;18.08;88.17
82418;BME280;72059;53.734;10.260;2023-09-12T01:12:54;100736.05;;;18.07;88.41
82418;BME280;72059;53.734;10.260;2023-09-12T01:15:21;100739.11;;;18.05;88.45
82418;BME280;72059;53.734;10.260;2023-09-12T01:17:50;100740.42;;;18.05;88.57
82418;BME280;72059;53.734;10.260;2023-09-12T01:20:37;100727.31;;;18.04;88.56
82418;BME280;72059;53.734;10.260;2023-09-12T01:25:42;100729.03;;;18.00;88.64
82418;BME280;72059;53.734;10.260;2023-09-12T01:28:10;100724.25;;;17.99;88.71
82418;BME280;72059;53.734;10.260;2023-09-12T01:30:39;100720.32;;;17.98;88.80
82418;BME280;72059;53.734;10.260;2023-09-12T01:33:08;100718.58;;;17.97;88.85
82418;BME280;72059;53.734;10.260;2023-09-12T01:35:36;100709.83;;;17.95;88.90
82418;BME280;72059;53.734;10.260;2023-09-12T01:38:03;100705.02;;;17.94;89.02
82418;BME280;72059;53.734;10.260;2023-09-12T01:40:48;100705.90;;;17.93;89.08
82418;BME280;72059;53.734;10.260;2023-09-12T01:43:15;100696.31;;;17.95;89.16
82418;BME280;72059;53.734;10.260;2023-09-12T01:45:45;100695.01;;;17.95;89.17
82418;BME280;72059;53.734;10.260;2023-09-12T01:48:18;100691.92;;;17.94;89.12
82418;BME280;72059;53.734;10.260;2023-09-12T01:50:45;100688.88;;;17.93;89.08
82418;BME280;72059;53.734;10.260;2023-09-12T01:53:12;100669.23;;;17.92;89.13
82418;BME280;72059;53.734;10.260;2023-09-12T01:55:43;100668.80;;;17.91;89.13
82418;BME280;72059;53.734;10.260;2023-09-12T01:58:12;100670.11;;;17.91;89.13
82418;BME280;72059;53.734;10.260;2023-09-12T02:00:40;100669.70;;;17.93;89.19
82418;BME280;72059;53.734;10.260;2023-09-12T02:03:08;100665.32;;;17.95;89.10
82418;BME280;72059;53.734;10.260;2023-09-12T02:05:36;100669.26;;;17.98;89.01
82418;BME280;72059;53.734;10.260;2023-09-12T02:08:03;100668.38;;;18.01;88.98
82418;BME280;72059;53.734;10.260;2023-09-12T02:10:31;100662.28;;;18.05;88.92
82418;BME280;72059;53.734;10.260;2023-09-12T02:12:59;100656.16;;;18.07;88.84
82418;BME280;72059;53.734;10.260;2023-09-12T02:15:26;100647.45;;;18.08;88.79
82418;BME280;72059;53.734;10.260;2023-09-12T02:17:54;100650.09;;;18.11;88.76
82418;BME280;72059;53.734;10.260;2023-09-12T02:20:21;100661.88;;;18.13;88.73
82418;BME280;72059;53.734;10.260;2023-09-12T02:22:49;100685.02;;;18.14;88.74
82418;BME280;72059;53.734;10.260;2023-09-12T02:25:16;100703.78;;;18.13;88.76
82418;BME280;72059;53.734;10.260;2023-09-12T02:27:44;100712.95;;;18.11;88.82
82418;BME280;72059;53.734;10.260;2023-09-12T02:30:11;100728.22;;;18.09;88.95
82418;BME280;72059;53.734;10.260;2023-09-12T02:32:41;100727.77;;;18.08;89.00
82418;BME280;72059;53.734;10.260;2023-09-12T02:35:08;100719.47;;;18.05;89.06
82418;BME280;72059;53.734;10.260;2023-09-12T02:37:35;100724.70;;;18.05;89.08
82418;BME280;72059;53.734;10.260;2023-09-12T02:40:03;100726.44;;;18.05;89.20
82418;BME280;72059;53.734;10.260;2023-09-12T02:42:32;100736.03;;;18.06;89.27
82418;BME280;72059;53.734;10.260;2023-09-12T02:45:00;100734.73;;;18.07;89.21
82418;BME280;72059;53.734;10.260;2023-09-12T02:47:27;100740.86;;;18.08;89.24
82418;BME280;72059;53.734;10.260;2023-09-12T02:49:54;100737.81;;;18.08;89.19
82418;BME280;72059;53.734;10.260;2023-09-12T02:52:22;100734.73;;;18.07;89.22
82418;BME280;72059;53.734;10.260;2023-09-12T02:54:49;100742.59;;;18.07;89.25
82418;BME280;72059;53.734;10.260;2023-09-12T02:57:17;100739.11;;;18.05;89.37
82418;BME280;72059;53.734;10.260;2023-09-12T02:59:44;100729.48;;;18.04;89.50
82418;BME280;72059;53.734;10.260;2023-09-12T03:02:12;100738.22;;;18.03;89.55
82418;BME280;72059;53.734;10.260;2023-09-12T03:04:39;100744.76;;;18.02;89.77
82418;BME280;72059;53.734;10.260;2023-09-12T03:07:07;100738.67;;;18.01;89.81
82418;BME280;72059;53.734;10.260;2023-09-12T03:09:34;100743.02;;;18.02;89.80
82418;BME280;72059;53.734;10.260;2023-09-12T03:12:04;100739.52;;;18.03;89.83
82418;BME280;72059;53.734;10.260;2023-09-12T03:14:31;100739.10;;;18.04;89.83
82418;BME280;72059;53.734;10.260;2023-09-12T03:16:59;100744.77;;;18.05;89.88
82418;BME280;72059;53.734;10.260;2023-09-12T03:19:26;100746.96;;;18.04;89.99
82418;BME280;72059;53.734;10.260;2023-09-12T03:21:54;100757.86;;;18.03;90.00
82418;BME280;72059;53.734;10.260;2023-09-12T03:24:21;100750.45;;;18.03;90.05
82418;BME280;72059;53.734;10.260;2023-09-12T03:26:51;100760.91;;;18.06;90.02
82418;BME280;72059;53.734;10.260;2023-09-12T03:29:19;100758.76;;;18.07;90.06
82418;BME280;72059;53.734;10.260;2023-09-12T03:31:46;100760.08;;;18.10;89.99
82418;BME280;72059;53.734;10.260;2023-09-12T03:34:14;100760.98;;;18.12;89.97
82418;BME280;72059;53.734;10.260;2023-09-12T03:36:41;100759.67;;;18.14;90.00
82418;BME280;72059;53.734;10.260;2023-09-12T03:39:08;100762.72;;;18.13;90.04
82418;BME280;72059;53.734;10.260;2023-09-12T03:41:37;100764.48;;;18.13;90.25
82418;BME280;72059;53.734;10.260;2023-09-12T03:44:06;100742.16;;;18.05;90.48
82418;BME280;72059;53.734;10.260;2023-09-12T03:46:34;100743.03;;;18.05;90.69
82418;BME280;72059;53.734;10.260;2023-09-12T03:49:01;100746.06;;;18.02;90.85
82418;BME280;72059;53.734;10.260;2023-09-12T03:51:29;100746.93;;;17.97;91.15
82418;BME280;72059;53.734;10.260;2023-09-12T03:53:57;100759.59;;;17.95;91.38
82418;BME280;72059;53.734;10.260;2023-09-12T03:56:24;100760.46;;;17.94;91.56
82418;BME280;72059;53.734;10.260;2023-09-12T03:58:51;100753.91;;;17.92;91.68
82418;BME280;72059;53.734;10.260;2023-09-12T04:01:20;100750.86;;;17.91;91.84
82418;BME280;72059;53.734;10.260;2023-09-12T04:03:48;100756.09;;;17.91;91.97
82418;BME280;72059;53.734;10.260;2023-09-12T04:06:15;100749.97;;;17.91;92.12
82418;BME280;72059;53.734;10.260;2023-09-12T04:08:43;100749.55;;;17.90;92.25
82418;BME280;72059;53.734;10.260;2023-09-12T04:11:10;100744.73;;;17.91;92.37
82418;BME280;72059;53.734;10.260;2023-09-12T04:13:38;100747.34;;;17.89;92.45
82418;BME280;72059;53.734;10.260;2023-09-12T04:16:05;100745.16;;;17.90;92.50
82418;BME280;72059;53.734;10.260;2023-09-12T04:18:32;100747.36;;;17.91;92.56
82418;BME280;72059;53.734;10.260;2023-09-12T04:21:00;100753.02;;;17.90;92.65
82418;BME280;72059;53.734;10.260;2023-09-12T04:23:27;100750.39;;;17.90;92.67
82418;BME280;72059;53.734;10.260;2023-09-12T04:25:55;100733.38;;;17.90;92.75
82418;BME280;72059;53.734;10.260;2023-09-12T04:28:22;100737.30;;;17.90;92.85
82418;BME280;72059;53.734;10.260;2023-09-12T04:30:51;100736.45;;;17.90;92.92
82418;BME280;72059;53.734;10.260;2023-09-12T04:33:18;100736.44;;;17.88;92.97
82418;BME280;72059;53.734;10.260;2023-09-12T04:35:46;100726.83;;;17.90;93.02
82418;BME280;72059;53.734;10.260;2023-09-12T04:38:13;100718.98;;;17.92;93.10
82418;BME280;72059;53.734;10.260;2023-09-12T04:40:41;100702.42;;;17.91;93.16
82418;BME280;72059;53.734;10.260;2023-09-12T04:43:08;100699.81;;;17.93;93.26
82418;BME280;72059;53.734;10.260;2023-09-12T04:45:36;100703.70;;;17.94;93.35
82418;BME280;72059;53.734;10.260;2023-09-12T04:48:03;100699.36;;;17.95;93.42
82418;BME280;72059;53.734;10.260;2023-09-12T04:50:31;100706.78;;;17.94;93.48
82418;BME280;72059;53.734;10.260;2023-09-12T04:52:58;100700.23;;;17.92;93.50
82418;BME280;72059;53.734;10.260;2023-09-12T04:55:26;100698.03;;;17.90;93.53
82418;BME280;72059;53.734;10.260;2023-09-12T04:57:53;100693.67;;;17.88;93.57
82418;BME280;72059;53.734;10.260;2023-09-12T05:00:20;100687.99;;;17.85;93.63
82418;BME280;72059;53.734;10.260;2023-09-12T05:02:48;100696.27;;;17.83;93.66
82418;BME280;72059;53.734;10.260;2023-09-12T05:05:15;100694.52;;;17.80;93.72
82418;BME280;72059;53.734;10.260;2023-09-12T05:07:43;100695.39;;;17.78;93.75
82418;BME280;72059;53.734;10.260;2023-09-12T05:10:10;100697.58;;;17.77;93.86
82418;BME280;72059;53.734;10.260;2023-09-12T05:12:38;100699.30;;;17.76;93.94
82418;BME280;72059;53.734;10.260;2023-09-12T05:15:05;100699.30;;;17.76;94.00
82418;BME280;72059;53.734;10.260;2023-09-12T05:17:33;100704.12;;;17.77;94.06
82418;BME280;72059;53.734;10.260;2023-09-12T05:20:01;100710.23;;;17.76;94.12
82418;BME280;72059;53.734;10.260;2023-09-12T05:22:29;100722.44;;;17.75;94.14
82418;BME280;72059;53.734;10.260;2023-09-12T05:24:56;100729.86;;;17.74;94.17
82418;BME280;72059;53.734;10.260;2023-09-12T05:27:24;100739.88;;;17.75;94.21
82418;BME280;72059;53.734;10.260;2023-09-12T05:29:51;100747.30;;;17.73;94.23
82418;BME280;72059;53.734;10.260;2023-09-12T05:32:19;100752.53;;;17.73;94.26
82418;BME280;72059;53.734;10.260;2023-09-12T05:34:46;100753.41;;;17.74;94.28
82418;BME280;72059;53.734;10.260;2023-09-12T05:37:15;100764.33;;;17.77;94.32
82418;BME280;72059;53.734;10.260;2023-09-12T05:39:43;100766.06;;;17.78;94.32
82418;BME280;72059;53.734;10.260;2023-09-12T05:42:10;100767.80;;;17.79;94.32
82418;BME280;72059;53.734;10.260;2023-09-12T05:44:38;100770.44;;;17.80;94.31
82418;BME280;72059;53.734;10.260;2023-09-12T05:47:05;100774.80;;;17.83;94.37
82418;BME280;72059;53.734;10.260;2023-09-12T05:49:33;100769.58;;;17.86;94.44
82418;BME280;72059;53.734;10.260;2023-09-12T05:52:00;100781.81;;;17.90;94.48
82418;BME280;72059;53.734;10.260;2023-09-12T05:54:28;100785.77;;;17.93;94.55
82418;BME280;72059;53.734;10.260;2023-09-12T05:56:56;100789.70;;;17.95;94.53
82418;BME280;72059;53.734;10.260;2023-09-12T05:59:24;100787.08;;;17.95;94.49
82418;BME280;72059;53.734;10.260;2023-09-12T06:01:51;100780.95;;;17.94;94.50
82418;BME280;72059;53.734;10.260;2023-09-12T06:04:18;100782.73;;;17.95;94.49
82418;BME280;72059;53.734;10.260;2023-09-12T06:06:46;100773.58;;;17.98;94.53
82418;BME280;72059;53.734;10.260;2023-09-12T06:09:14;100766.16;;;17.99;94.57
82418;BME280;72059;53.734;10.260;2023-09-12T06:11:41;100758.73;;;18.01;94.60
82418;BME280;72059;53.734;10.260;2023-09-12T06:14:09;100757.44;;;18.04;94.67
82418;BME280;72059;53.734;10.260;2023-09-12T06:16:36;100753.94;;;18.05;94.70
82418;BME280;72059;53.734;10.260;2023-09-12T06:19:04;100743.03;;;18.05;94.69
82418;BME280;72059;53.734;10.260;2023-09-12T06:21:31;100752.64;;;18.08;94.70
82418;BME280;72059;53.734;10.260;2023-09-12T06:26:41;100750.49;;;18.10;94.72
82418;BME280;72059;53.734;10.260;2023-09-12T06:29:09;100763.59;;;18.12;94.68
82418;BME280;72059;53.734;10.260;2023-09-12T06:31:36;100760.56;;;18.14;94.63
82418;BME280;72059;53.734;10.260;2023-09-12T06:34:04;100752.67;;;18.16;94.56
82418;BME280;72059;53.734;10.260;2023-09-12T06:36:31;100748.77;;;18.20;94.51
82418;BME280;72059;53.734;10.260;2023-09-12T06:38:59;100752.70;;;18.23;94.46
82418;BME280;72059;53.734;10.260;2023-09-12T06:41:27;100750.97;;;18.24;94.34
82418;BME280;72059;53.734;10.260;2023-09-12T06:43:55;100755.77;;;18.26;94.25
82418;BME280;72059;53.734;10.260;2023-09-12T06:46:24;100757.97;;;18.30;94.18
82418;BME280;72059;53.734;10.260;2023-09-12T06:48:52;100763.63;;;18.37;94.11
82418;BME280;72059;53.734;10.260;2023-09-12T06:51:23;100771.08;;;18.41;93.94
82418;BME280;72059;53.734;10.260;2023-09-12T06:53:49;100767.59;;;18.46;93.78
82418;BME280;72059;53.734;10.260;2023-09-12T06:56:17;100773.28;;;18.54;93.63
82418;BME280;72059;53.734;10.260;2023-09-12T06:58:44;100778.08;;;18.60;93.47
82418;BME280;72059;53.734;10.260;2023-09-12T07:01:12;100783.34;;;18.67;93.34
82418;BME280;72059;53.734;10.260;2023-09-12T07:03:39;100778.96;;;18.70;93.17
82418;BME280;72059;53.734;10.260;2023-09-12T07:06:07;100782.91;;;18.75;93.08
82418;BME280;72059;53.734;10.260;2023-09-12T07:08:34;100786.81;;;18.80;93.05
82418;BME280;72059;53.734;10.260;2023-09-12T07:11:02;100788.12;;;18.81;92.99
82418;BME280;72059;53.734;10.260;2023-09-12T07:13:33;100793.83;;;18.81;92.88
82418;BME280;72059;53.734;10.260;2023-09-12T07:16:00;100783.34;;;18.81;92.85
82418;BME280;72059;53.734;10.260;2023-09-12T07:18:30;100789.02;;;18.85;92.82
82418;BME280;72059;53.734;10.260;2023-09-12T07:21:02;100780.26;;;18.81;92.62
82418;BME280;72059;53.734;10.260;2023-09-12T07:23:30;100784.66;;;18.82;92.61
82418;BME280;72059;53.734;10.260;2023-09-12T07:25:57;100787.25;;;18.87;92.56
82418;BME280;72059;53.734;10.260;2023-09-12T07:28:30;100783.75;;;18.91;92.40
82418;BME280;72059;53.734;10.260;2023-09-12T07:30:55;100781.56;;;18.94;92.29
82418;BME280;72059;53.734;10.260;2023-09-12T07:33:22;100781.14;;;18.99;92.19
82418;BME280;72059;53.734;10.260;2023-09-12T07:35:51;100774.12;;;19.03;92.08
82418;BME280;72059;53.734;10.260;2023-09-12T07:38:21;100778.98;;;19.06;91.98
82418;BME280;72059;53.734;10.260;2023-09-12T07:40:48;100782.03;;;19.09;91.94
82418;BME280;72059;53.734;10.260;2023-09-12T07:43:16;100782.04;;;19.12;91.83
82418;BME280;72059;53.734;10.260;2023-09-12T07:45:43;100780.73;;;19.13;91.79
82418;BME280;72059;53.734;10.260;2023-09-12T07:48:11;100782.00;;;19.15;91.65
82418;BME280;72059;53.734;10.260;2023-09-12T07:50:38;100788.59;;;19.13;91.61
82418;BME280;72059;53.734;10.260;2023-09-12T07:53:06;100788.14;;;19.12;91.57
82418;BME280;72059;53.734;10.260;2023-09-12T07:55:39;100786.83;;;19.11;91.48
82418;BME280;72059;53.734;10.260;2023-09-12T07:58:08;100788.59;;;19.09;91.35
82418;BME280;72059;53.734;10.260;2023-09-12T08:00:36;100774.17;;;19.13;91.34
82418;BME280;72059;53.734;10.260;2023-09-12T08:03:04;100769.35;;;19.16;91.26
82418;BME280;72059;53.734;10.260;2023-09-12T08:05:31;100768.89;;;19.21;91.14
82418;BME280;72059;53.734;10.260;2023-09-12T08:07:59;100772.40;;;19.25;90.97
82418;BME280;72059;53.734;10.260;2023-09-12T08:10:27;100772.80;;;19.31;90.95
82418;BME280;72059;53.734;10.260;2023-09-12T08:12:55;100779.78;;;19.39;90.80
82418;BME280;72059;53.734;10.260;2023-09-12T08:15:22;100778.45;;;19.50;90.62
82418;BME280;72059;53.734;10.260;2023-09-12T08:17:50;100787.59;;;19.64;90.38
82418;BME280;72059;53.734;10.260;2023-09-12T08:20:19;100790.17;;;19.75;90.03
82418;BME280;72059;53.734;10.260;2023-09-12T08:22:47;100794.10;;;19.80;89.66
82418;BME280;72059;53.734;10.260;2023-09-12T08:25:15;100791.48;;;19.78;89.26
82418;BME280;72059;53.734;10.260;2023-09-12T08:27:42;100792.80;;;19.75;88.90
82418;BME280;72059;53.734;10.260;2023-09-12T08:30:11;100797.15;;;19.81;88.94
82418;BME280;72059;53.734;10.260;2023-09-12T08:32:39;100797.52;;;19.95;88.87
82418;BME280;72059;53.734;10.260;2023-09-12T08:35:09;100811.50;;;20.06;88.59
82418;BME280;72059;53.734;10.260;2023-09-12T08:37:39;100818.46;;;20.18;88.35
82418;BME280;72059;53.734;10.260;2023-09-12T08:40:08;100816.17;;;20.33;87.99
82418;BME280;72059;53.734;10.260;2023-09-12T08:42:43;100814.74;;;20.53;87.65
82418;BME280;72059;53.734;10.260;2023-09-12T08:45:18;100819.01;;;20.68;86.91
82418;BME280;72059;53.734;10.260;2023-09-12T08:47:40;100824.43;;;20.48;86.16
82418;BME280;72059;53.734;10.260;2023-09-12T08:50:10;100824.56;;;20.22;86.53
82418;BME280;72059;53.734;10.260;2023-09-12T08:52:39;100833.41;;;20.08;87.05
82418;BME280;72059;53.734;10.260;2023-09-12T08:55:08;100820.70;;;20.08;87.37
82418;BME280;72059;53.734;10.260;2023-09-12T08:57:42;100819.78;;;20.18;87.18
82418;BME280;72059;53.734;10.260;2023-09-12T09:00:06;100813.04;;;20.45;86.74
82418;BME280;72059;53.734;10.260;2023-09-12T09:02:36;100817.17;;;20.80;85.11
82418;BME280;72059;53.734;10.260;2023-09-12T09:05:06;100822.19;;;21.13;83.22
82418;BME280;72059;53.734;10.260;2023-09-12T09:07:41;100821.34;;;21.52;81.72
82418;BME280;72059;53.734;10.260;2023-09-12T09:10:17;100828.05;;;21.86;80.25
82418;BME280;72059;53.734;10.260;2023-09-12T09:12:46;100829.70;;;22.27;79.02
82418;BME280;72059;53.734;10.260;2023-09-12T09:15:24;100823.83;;;22.69;77.72
82418;BME280;72059;53.734;10.260;2023-09-12T09:17:53;100822.88;;;23.01;75.68
82418;BME280;72059;53.734;10.260;2023-09-12T09:20:23;100840.52;;;23.23;74.06
82418;BME280;72059;53.734;10.260;2023-09-12T09:23:00;100831.03;;;23.39;73.34
82418;BME280;72059;53.734;10.260;2023-09-12T09:25:28;100828.53;;;23.54;72.85
82418;BME280;72059;53.734;10.260;2023-09-12T09:27:57;100829.77;;;23.59;72.31
82418;BME280;72059;53.734;10.260;2023-09-12T09:30:41;100830.63;;;23.61;72.41
82418;BME280;72059;53.734;10.260;2023-09-12T09:33:09;100822.48;;;23.49;71.79
82418;BME280;72059;53.734;10.260;2023-09-12T09:35:37;100827.05;;;23.13;71.98
82418;BME280;72059;53.734;10.260;2023-09-12T09:38:07;100834.91;;;22.90;73.44
82418;BME280;72059;53.734;10.260;2023-09-12T09:40:35;100837.35;;;22.77;73.31
82418;BME280;72059;53.734;10.260;2023-09-12T09:43:03;100832.59;;;22.73;73.45
82418;BME280;72059;53.734;10.260;2023-09-12T09:45:31;100842.44;;;22.88;73.38
82418;BME280;72059;53.734;10.260;2023-09-12T09:48:06;100842.53;;;23.09;72.69
82418;BME280;72059;53.734;10.260;2023-09-12T09:50:36;100835.29;;;23.20;71.82
82418;BME280;72059;53.734;10.260;2023-09-12T09:53:04;100837.02;;;23.21;71.33
82418;BME280;72059;53.734;10.260;2023-09-12T09:55:34;100832.19;;;23.22;71.00
82418;BME280;72059;53.734;10.260;2023-09-12T09:58:05;100840.47;;;23.27;70.79
82418;BME280;72059;53.734;10.260;2023-09-12T10:00:33;100832.22;;;23.21;69.46
82418;BME280;72059;53.734;10.260;2023-09-12T10:03:04;100834.92;;;23.16;69.00
82418;BME280;72059;53.734;10.260;2023-09-12T10:05:32;100840.55;;;23.22;69.45
82418;BME280;72059;53.734;10.260;2023-09-12T10:08:00;100833.09;;;23.46;69.06
82418;BME280;72059;53.734;10.260;2023-09-12T10:10:30;100828.88;;;23.81;68.94
82418;BME280;72059;53.734;10.260;2023-09-12T10:12:58;100834.84;;;23.91;66.75
82418;BME280;72059;53.734;10.260;2023-09-12T10:15:28;100838.40;;;23.90;66.99
82418;BME280;72059;53.734;10.260;2023-09-12T10:17:58;100839.48;;;24.01;66.68
82418;BME280;72059;53.734;10.260;2023-09-12T10:20:53;100837.92;;;24.15;65.45
82418;BME280;72059;53.734;10.260;2023-09-12T10:25:36;100847.81;;;24.46;64.84
82418;BME280;72059;53.734;10.260;2023-09-12T10:28:06;100844.09;;;24.34;62.68
82418;BME280;72059;53.734;10.260;2023-09-12T10:30:34;100844.92;;;24.37;62.92
82418;BME280;72059;53.734;10.260;2023-09-12T10:33:03;100839.09;;;24.21;62.90
82418;BME280;72059;53.734;10.260;2023-09-12T10:35:31;100837.08;;;24.13;63.81
82418;BME280;72059;53.734;10.260;2023-09-12T10:38:01;100830.88;;;24.14;64.40
82418;BME280;72059;53.734;10.260;2023-09-12T10:40:33;100836.61;;;24.15;64.50
82418;BME280;72059;53.734;10.260;2023-09-12T10:43:03;100839.37;;;24.07;64.40
82418;BME280;72059;53.734;10.260;2023-09-12T10:45:36;100840.10;;;23.93;64.72
82418;BME280;72059;53.734;10.260;2023-09-12T10:48:06;100837.06;;;23.69;65.49
82418;BME280;72059;53.734;10.260;2023-09-12T10:50:35;100832.99;;;23.26;66.12
82418;BME280;72059;53.734;10.260;2023-09-12T10:53:12;100835.97;;;22.81;67.78
82418;BME280;72059;53.734;10.260;2023-09-12T10:55:41;100832.38;;;22.53;69.01
82418;BME280;72059;53.734;10.260;2023-09-12T10:58:09;100831.81;;;22.32;69.87
82418;BME280;72059;53.734;10.260;2023-09-12T11:00:40;100833.78;;;22.16;70.38
82418;BME280;72059;53.734;10.260;2023-09-12T11:05:57;100835.05;;;22.21;70.67
82418;BME280;72059;53.734;10.260;2023-09-12T11:08:24;100825.16;;;22.39;70.24
82418;BME280;72059;53.734;10.260;2023-09-12T11:13:40;100838.34;;;22.69;69.51
82418;BME280;72059;53.734;10.260;2023-09-12T11:16:16;100836.80;;;22.83;69.23
82418;BME280;72059;53.734;10.260;2023-09-12T11:19:14;100836.73;;;22.88;69.25
82418;BME280;72059;53.734;10.260;2023-09-12T11:21:50;100844.25;;;22.85;69.38
82418;BME280;72059;53.734;10.260;2023-09-12T11:24:18;100848.45;;;22.70;69.26
82418;BME280;72059;53.734;10.260;2023-09-12T11:26:57;100840.76;;;22.56;69.42
82418;BME280;72059;53.734;10.260;2023-09-12T11:29:36;100844.42;;;22.42;69.51
82418;BME280;72059;53.734;10.260;2023-09-12T11:32:04;100837.14;;;22.28;69.77
82418;BME280;72059;53.734;10.260;2023-09-12T11:34:37;100842.50;;;22.23;70.02
82418;BME280;72059;53.734;10.260;2023-09-12T11:37:05;100839.38;;;22.25;70.39
82418;BME280;72059;53.734;10.260;2023-09-12T11:39:34;100842.44;;;22.26;70.56
82418;BME280;72059;53.734;10.260;2023-09-12T11:42:04;100842.12;;;22.19;70.79
82418;BME280;72059;53.734;10.260;2023-09-12T11:44:33;100838.27;;;22.09;71.24
82418;BME280;72059;53.734;10.260;2023-09-12T11:47:01;100838.03;;;21.94;71.43
82418;BME280;72059;53.734;10.260;2023-09-12T11:49:39;100838.09;;;21.88;71.62
82418;BME280;72059;53.734;10.260;2023-09-12T11:52:11;100840.72;;;21.90;71.66
82418;BME280;72059;53.734;10.260;2023-09-12T11:54:42;100838.95;;;21.92;71.35
82418;BME280;72059;53.734;10.260;2023-09-12T11:57:11;100839.43;;;21.87;71.65
82418;BME280;72059;53.734;10.260;2023-09-12T11:59:44;100837.70;;;21.86;71.73
82418;BME280;72059;53.734;10.260;2023-09-12T12:02:15;100834.16;;;21.87;71.79
82418;BME280;72059;53.734;10.260;2023-09-12T12:04:42;100838.47;;;21.94;71.86
82418;BME280;72059;53.734;10.260;2023-09-12T12:07:10;100836.17;;;22.03;71.84
82418;BME280;72059;53.734;10.260;2023-09-12T12:09:38;100839.16;;;22.10;71.87
82418;BME280;72059;53.734;10.260;2023-09-12T12:12:12;100836.40;;;22.18;71.85
82418;BME280;72059;53.734;10.260;2023-09-12T12:14:41;100833.67;;;22.26;71.85
82418;BME280;72059;53.734;10.260;2023-09-12T12:17:11;100836.67;;;22.31;71.79
82418;BME280;72059;53.734;10.260;2023-09-12T12:19:39;100837.95;;;22.34;71.75
82418;BME280;72059;53.734;10.260;2023-09-12T12:22:07;100836.11;;;22.40;71.67
82418;BME280;72059;53.734;10.260;2023-09-12T12:24:41;100835.62;;;22.42;71.65
82418;BME280;72059;53.734;10.260;2023-09-12T12:27:08;100832.48;;;22.49;71.38
82418;BME280;72059;53.734;10.260;2023-09-12T12:29:37;100828.50;;;22.50;71.26
82418;BME280;72059;53.734;10.260;2023-09-12T12:32:10;100828.05;;;22.49;71.19
82418;BME280;72059;53.734;10.260;2023-09-12T12:34:38;100821.95;;;22.47;71.28
82418;BME280;72059;53.734;10.260;2023-09-12T12:37:05;100824.09;;;22.49;71.48
82418;BME280;72059;53.734;10.260;2023-09-12T12:39:33;100815.75;;;22.50;71.34
82418;BME280;72059;53.734;10.260;2023-09-12T12:42:00;100815.38;;;22.45;71.44
82418;BME280;72059;53.734;10.260;2023-09-12T12:44:35;100808.37;;;22.44;71.56
82418;BME280;72059;53.734;10.260;2023-09-12T12:47:05;100800.53;;;22.38;71.79
82418;BME280;72059;53.734;10.260;2023-09-12T12:49:37;100795.84;;;22.28;72.15
82418;BME280;72059;53.734;10.260;2023-09-12T12:52:05;100788.50;;;22.20;72.39
82418;BME280;72059;53.734;10.260;2023-09-12T12:54:34;100785.48;;;22.16;72.44
82418;BME280;72059;53.734;10.260;2023-09-12T12:57:02;100776.30;;;22.13;72.41
82418;BME280;72059;53.734;10.260;2023-09-12T12:59:29;100765.72;;;22.16;72.52
82418;BME280;72059;53.734;10.260;2023-09-12T13:01:59;100758.23;;;22.17;72.54